createdAt,value
2022-08-22T00:02:37.678Z,1.90
2022-08-22T00:02:49.197Z,1.83
2022-08-22T00:03:11.735Z,1.58
2022-08-22T00:03:12.643Z,1.65
2022-08-22T00:05:32.030Z,2.00
2022-08-22T00:08:45.556Z,1.95
2022-08-22T00:11:31.150Z,1.70
2022-08-22T00:14:32.328Z,2.20
2022-08-22T00:17:32.132Z,2.30
2022-08-22T00:20:09.585Z,1.88
2022-08-22T00:22:52.379Z,1.88
2022-08-22T00:26:00.015Z,2.08
2022-08-22T00:28:41.600Z,2.20
2022-08-22T00:31:40.568Z,1.98
2022-08-22T00:34:24.474Z,2.00
2022-08-22T00:37:06.814Z,2.10
2022-08-22T00:39:36.701Z,2.53
2022-08-22T00:42:52.532Z,2.00
2022-08-22T00:46:00.660Z,2.17
2022-08-22T00:49:02.566Z,2.38
2022-08-22T00:51:55.983Z,2.17
2022-08-22T00:54:50.275Z,2.50
2022-08-22T00:57:48.065Z,2.53
2022-08-22T01:00:26.346Z,2.53
2022-08-22T01:03:25.392Z,2.50
2022-08-22T01:06:44.206Z,2.08
2022-08-22T01:09:36.179Z,2.90
2022-08-22T01:12:41.506Z,2.65
2022-08-22T01:15:15.895Z,2.88
2022-08-22T01:18:16.337Z,2.90
2022-08-22T01:21:33.626Z,2.67
2022-08-22T01:25:17.718Z,2.75
2022-08-22T01:28:23.200Z,2.95
2022-08-22T01:32:02.634Z,3.03
2022-08-22T01:34:56.040Z,2.90
2022-08-22T01:37:54.358Z,2.90
2022-08-22T01:40:27.367Z,2.63
2022-08-22T01:43:59.419Z,2.88
2022-08-22T01:47:13.151Z,2.58
2022-08-22T01:50:03.891Z,2.80
2022-08-22T01:52:44.988Z,3.15
2022-08-22T01:55:33.029Z,3.05
2022-08-22T01:58:16.645Z,2.90
2022-08-22T02:01:28.399Z,3.30
2022-08-22T02:04:28.712Z,2.67
2022-08-22T02:07:17.279Z,2.75
2022-08-22T02:10:14.925Z,2.83
2022-08-22T02:12:49.078Z,2.72
2022-08-22T02:15:30.093Z,2.63
2022-08-22T02:18:09.253Z,3.17
2022-08-22T02:20:43.272Z,2.63
2022-08-22T02:23:50.412Z,2.80
2022-08-22T02:26:29.048Z,2.28
2022-08-22T02:29:11.998Z,2.53
2022-08-22T02:32:20.966Z,2.53
2022-08-22T02:35:20.805Z,2.70
2022-08-22T02:38:02.905Z,2.67
2022-08-22T02:41:02.051Z,2.53
2022-08-22T02:44:15.791Z,2.17
2022-08-22T02:47:33.042Z,2.50
2022-08-22T02:50:19.190Z,2.30
2022-08-22T02:53:10.205Z,2.65
2022-08-22T02:56:06.625Z,2.60
2022-08-22T02:59:00.152Z,2.70
2022-08-22T03:01:30.321Z,2.42
2022-08-22T03:04:41.745Z,2.65
2022-08-22T03:07:22.418Z,2.88
2022-08-22T03:10:08.958Z,2.45
2022-08-22T03:12:57.528Z,2.80
2022-08-22T03:15:39.433Z,2.28
2022-08-22T03:18:43.964Z,2.60
2022-08-22T03:22:14.488Z,2.40
2022-08-22T03:24:56.094Z,2.50
2022-08-22T03:27:33.478Z,3.22
2022-08-22T03:30:19.196Z,2.85
2022-08-22T03:33:12.695Z,2.85
2022-08-22T03:36:00.736Z,3.35
2022-08-22T03:39:02.158Z,3.10
2022-08-22T03:42:09.445Z,3.08
2022-08-22T03:45:29.595Z,2.53
2022-08-22T03:48:42.924Z,2.80
2022-08-22T03:51:24.486Z,2.90
2022-08-22T03:54:48.937Z,2.90
2022-08-22T03:57:24.659Z,3.35
2022-08-22T04:00:21.289Z,3.05
2022-08-22T04:03:33.191Z,3.17
2022-08-22T04:06:26.258Z,3.53
2022-08-22T04:09:17.613Z,3.25
2022-08-22T04:12:02.814Z,3.15
2022-08-22T04:14:58.288Z,3.00
2022-08-22T04:18:09.611Z,2.90
2022-08-22T04:21:23.835Z,3.28
2022-08-22T04:24:21.091Z,3.08
2022-08-22T04:27:27.456Z,3.30
2022-08-22T04:30:25.301Z,3.55
2022-08-22T04:33:06.576Z,3.60
2022-08-22T04:36:10.208Z,3.70
2022-08-22T04:38:51.237Z,3.88
2022-08-22T04:41:42.940Z,3.45
2022-08-22T04:44:40.713Z,3.70
2022-08-22T04:47:36.936Z,3.67
2022-08-22T04:50:30.547Z,3.67
2022-08-22T04:53:12.851Z,4.05
2022-08-22T04:56:11.510Z,4.55
2022-08-22T04:59:12.214Z,4.20
2022-08-22T05:01:54.962Z,3.35
2022-08-22T05:04:53.006Z,4.35
2022-08-22T05:07:35.904Z,3.45
2022-08-22T05:10:24.539Z,4.30
2022-08-22T05:13:42.890Z,3.83
2022-08-22T05:16:22.981Z,4.20
2022-08-22T05:19:02.173Z,4.30
2022-08-22T05:21:36.225Z,3.78
2022-08-22T05:24:20.434Z,4.18
2022-08-22T05:26:55.051Z,4.43
2022-08-22T05:29:29.781Z,4.32
2022-08-22T05:32:05.588Z,4.13
2022-08-22T05:34:42.361Z,4.32
2022-08-22T05:37:15.396Z,3.90
2022-08-22T05:39:49.139Z,4.00
2022-08-22T05:42:31.718Z,4.05
2022-08-22T05:45:03.361Z,4.15
2022-08-22T05:47:47.924Z,4.22
2022-08-22T05:50:38.022Z,4.88
2022-08-22T05:53:30.928Z,4.95
2022-08-22T05:56:26.316Z,5.13
2022-08-22T05:59:02.754Z,4.50
2022-08-22T06:02:01.425Z,4.70
2022-08-22T06:04:50.138Z,5.13
2022-08-22T06:07:34.991Z,4.45
2022-08-22T06:10:48.131Z,4.72
2022-08-22T06:13:33.960Z,4.28
2022-08-22T06:16:10.113Z,4.80
2022-08-22T06:18:42.264Z,4.70
2022-08-22T06:21:22.166Z,4.63
2022-08-22T06:24:03.324Z,4.50
2022-08-22T06:26:39.182Z,4.85
2022-08-22T06:29:08.758Z,5.07
2022-08-22T06:31:48.280Z,4.63
2022-08-22T06:34:28.404Z,4.90
2022-08-22T06:37:02.595Z,4.70
2022-08-22T06:39:45.767Z,4.45
2022-08-22T06:42:17.967Z,4.72
2022-08-22T06:45:14.205Z,4.78
2022-08-22T06:48:00.226Z,5.00
2022-08-22T06:50:37.404Z,4.78
2022-08-22T06:53:18.762Z,4.45
2022-08-22T06:55:54.720Z,4.47
2022-08-22T06:58:34.374Z,4.72
2022-08-22T07:01:23.834Z,4.30
2022-08-22T07:04:00.339Z,4.60
2022-08-22T07:06:45.271Z,4.68
2022-08-22T07:09:40.370Z,4.97
2022-08-22T07:12:35.697Z,4.75
2022-08-22T07:15:20.732Z,4.82
2022-08-22T07:17:59.555Z,4.97
2022-08-22T07:20:31.449Z,4.80
2022-08-22T07:23:07.503Z,4.82
2022-08-22T07:26:19.798Z,4.93
2022-08-22T07:29:00.783Z,4.88
2022-08-22T07:31:50.325Z,4.50
2022-08-22T07:34:49.015Z,5.80
2022-08-22T07:38:00.297Z,4.63
2022-08-22T07:40:49.538Z,3.92
2022-08-22T07:43:46.530Z,3.88
2022-08-22T07:46:48.832Z,4.28
2022-08-22T07:49:26.856Z,4.57
2022-08-22T07:52:02.357Z,4.22
2022-08-22T07:54:42.300Z,3.92
2022-08-22T07:57:22.843Z,4.28
2022-08-22T07:59:58.004Z,4.00
2022-08-22T08:02:48.042Z,4.15
2022-08-22T08:05:15.932Z,4.60
2022-08-22T08:07:46.195Z,4.15
2022-08-22T08:10:22.690Z,4.05
2022-08-22T08:13:02.700Z,4.43
2022-08-22T08:15:33.341Z,4.80
2022-08-22T08:18:11.539Z,4.10
2022-08-22T08:20:39.300Z,4.63
2022-08-22T08:23:10.765Z,4.20
2022-08-22T08:26:08.556Z,4.60
2022-08-22T08:28:45.744Z,4.18
2022-08-22T08:31:36.084Z,4.10
2022-08-22T08:34:16.248Z,4.43
2022-08-22T08:37:04.821Z,4.22
2022-08-22T08:39:51.954Z,4.82
2022-08-22T08:43:11.077Z,4.32
2022-08-22T08:46:19.574Z,4.22
2022-08-22T08:49:02.209Z,4.30
2022-08-22T08:52:14.184Z,4.57
2022-08-22T08:54:55.617Z,4.60
2022-08-22T08:58:06.727Z,4.25
2022-08-22T09:00:51.822Z,4.75
2022-08-22T09:03:37.367Z,4.50
2022-08-22T09:06:31.609Z,4.30
2022-08-22T09:09:41.893Z,4.68
2022-08-22T09:13:11.615Z,3.88
2022-08-22T09:16:34.699Z,4.57
2022-08-22T09:19:48.890Z,3.80
2022-08-22T09:22:54.517Z,4.20
2022-08-22T09:25:49.285Z,4.00
2022-08-22T09:29:13.570Z,4.22
2022-08-22T09:31:58.348Z,3.08
2022-08-22T09:35:08.955Z,3.53
2022-08-22T09:38:21.398Z,3.58
2022-08-22T09:40:54.025Z,3.35
2022-08-22T09:44:08.954Z,3.20
2022-08-22T09:47:51.109Z,3.67
2022-08-22T09:50:35.624Z,2.80
2022-08-22T09:53:24.453Z,3.00
2022-08-22T09:56:11.733Z,2.63
2022-08-22T09:59:07.376Z,2.65
2022-08-22T10:02:24.842Z,2.28
2022-08-22T10:05:39.523Z,2.55
2022-08-22T10:08:30.219Z,2.58
2022-08-22T10:11:19.613Z,2.83
2022-08-22T10:14:09.212Z,2.20
2022-08-22T10:17:11.834Z,2.50
2022-08-22T10:20:19.772Z,2.80
2022-08-22T10:23:09.040Z,2.90
2022-08-22T10:26:23.053Z,2.38
2022-08-22T10:29:26.584Z,2.78
2022-08-22T10:32:10.787Z,2.25
2022-08-22T10:34:49.522Z,2.13
2022-08-22T10:37:30.646Z,2.17
2022-08-22T10:40:26.753Z,2.40
2022-08-22T10:43:11.068Z,2.40
2022-08-22T10:45:45.276Z,2.30
2022-08-22T10:48:12.188Z,2.40
2022-08-22T10:51:01.214Z,2.20
2022-08-22T10:54:06.486Z,2.67
2022-08-22T10:56:46.772Z,2.10
2022-08-22T10:59:39.307Z,1.90
2022-08-22T11:02:33.878Z,1.92
2022-08-22T11:05:42.778Z,1.90
2022-08-22T11:08:37.263Z,1.73
2022-08-22T11:11:32.532Z,1.70
2022-08-22T11:14:19.725Z,1.70
2022-08-22T11:17:01.134Z,2.05
2022-08-22T11:20:21.435Z,2.28
2022-08-22T11:23:16.518Z,2.50
2022-08-22T11:26:05.312Z,1.80
2022-08-22T11:28:53.404Z,1.80
2022-08-22T11:31:53.493Z,2.00
2022-08-22T11:35:23.074Z,1.90
2022-08-22T11:38:03.070Z,1.80
2022-08-22T11:41:10.251Z,1.73
2022-08-22T11:44:25.593Z,2.03
2022-08-22T11:47:00.322Z,1.70
2022-08-22T11:49:32.753Z,1.70
2022-08-22T11:52:20.533Z,1.70
2022-08-22T11:55:27.554Z,1.95
2022-08-22T11:58:41.072Z,2.00
2022-08-22T12:01:21.841Z,1.63
2022-08-22T12:04:05.413Z,1.80
2022-08-22T12:06:36.992Z,1.77
2022-08-22T12:09:09.820Z,1.83
2022-08-22T12:12:02.345Z,1.80
2022-08-22T12:14:47.189Z,1.95
2022-08-22T12:18:01.641Z,1.90
2022-08-22T12:20:57.191Z,2.35
2022-08-22T12:23:48.891Z,2.00
2022-08-22T12:26:49.555Z,2.03
2022-08-22T12:29:39.978Z,2.00
2022-08-22T12:32:45.946Z,2.10
2022-08-22T12:35:45.661Z,1.85
2022-08-22T12:38:29.428Z,2.00
2022-08-22T12:41:36.276Z,2.33
2022-08-22T12:44:34.782Z,1.75
2022-08-22T12:47:32.110Z,2.00
2022-08-22T12:50:17.714Z,2.35
2022-08-22T12:53:10.989Z,1.98
2022-08-22T12:56:06.268Z,1.88
2022-08-22T12:59:05.031Z,2.08
2022-08-22T13:01:43.339Z,2.05
2022-08-22T13:04:33.370Z,1.98
2022-08-22T13:07:30.833Z,1.80
2022-08-22T13:10:17.384Z,1.65
2022-08-22T13:12:55.150Z,2.40
2022-08-22T13:15:33.677Z,2.03
2022-08-22T13:18:29.884Z,2.38
2022-08-22T13:21:04.279Z,2.30
2022-08-22T13:23:42.191Z,2.17
2022-08-22T13:26:33.484Z,2.00
2022-08-22T13:29:42.989Z,1.85
2022-08-22T13:32:40.303Z,1.90
2022-08-22T13:35:33.554Z,2.10
2022-08-22T13:38:13.263Z,2.28
2022-08-22T13:40:47.818Z,2.35
2022-08-22T13:43:28.311Z,1.98
2022-08-22T13:46:01.822Z,2.00
2022-08-22T13:48:49.865Z,2.03
2022-08-22T13:51:31.342Z,1.52
2022-08-22T13:54:41.324Z,1.90
2022-08-22T13:57:34.827Z,1.80
2022-08-22T14:00:28.559Z,1.42
2022-08-22T14:03:18.099Z,1.70
2022-08-22T14:05:54.189Z,2.00
2022-08-22T14:08:34.292Z,1.92
2022-08-22T14:11:42.224Z,1.70
2022-08-22T14:14:10.263Z,1.70
2022-08-22T14:16:53.738Z,1.50
2022-08-22T14:19:58.851Z,1.70
2022-08-22T14:22:35.165Z,1.60
2022-08-22T14:25:25.933Z,1.70
2022-08-22T14:28:06.333Z,1.80
2022-08-22T14:31:02.740Z,1.67
2022-08-22T14:33:48.667Z,1.55
2022-08-22T14:36:49.294Z,1.50
2022-08-22T14:39:43.619Z,1.90
2022-08-22T14:42:26.557Z,1.73
2022-08-22T14:45:22.269Z,1.48
2022-08-22T14:48:39.171Z,1.60
2022-08-22T14:51:28.022Z,1.50
2022-08-22T14:54:21.597Z,1.80
2022-08-22T14:56:53.461Z,1.90
2022-08-22T14:59:50.354Z,2.08
2022-08-22T15:02:31.627Z,1.80
2022-08-22T15:05:14.799Z,2.30
2022-08-22T15:07:56.219Z,2.00
2022-08-22T15:10:34.338Z,1.80
2022-08-22T15:13:08.027Z,1.58
2022-08-22T15:15:52.759Z,1.75
2022-08-22T15:18:27.800Z,1.80
2022-08-22T15:21:21.013Z,2.00
2022-08-22T15:24:03.132Z,1.48
2022-08-22T15:26:38.370Z,1.80
2022-08-22T15:29:29.027Z,1.77
2022-08-22T15:32:02.753Z,1.88
2022-08-22T15:34:38.893Z,1.73
2022-08-22T15:37:23.646Z,2.00
2022-08-22T15:40:08.395Z,1.77
2022-08-22T15:42:47.321Z,1.90
2022-08-22T15:45:37.992Z,1.75
2022-08-22T15:48:24.648Z,1.90
2022-08-22T15:51:09.233Z,1.80
2022-08-22T15:54:25.011Z,1.75
2022-08-22T15:56:53.084Z,1.60
2022-08-22T15:59:53.283Z,1.80
2022-08-22T16:02:35.249Z,1.70
2022-08-22T16:05:11.352Z,1.90
2022-08-22T16:08:02.854Z,1.73
2022-08-22T16:10:38.770Z,1.98
2022-08-22T16:13:38.240Z,1.80
2022-08-22T16:16:10.462Z,1.60
2022-08-22T16:18:37.512Z,1.63
2022-08-22T16:21:08.181Z,1.98
2022-08-22T16:23:50.992Z,1.67
2022-08-22T16:26:31.157Z,1.70
2022-08-22T16:29:41.356Z,1.67
2022-08-22T16:32:21.811Z,1.80
2022-08-22T16:34:51.598Z,1.83
2022-08-22T16:37:48.205Z,1.83
2022-08-22T16:40:26.097Z,1.92
2022-08-22T16:43:16.974Z,1.77
2022-08-22T16:45:46.297Z,2.03
2022-08-22T16:48:36.921Z,1.73
2022-08-22T16:51:11.805Z,1.67
2022-08-22T16:53:38.944Z,1.83
2022-08-22T16:57:16.168Z,1.88
2022-08-22T17:00:39.326Z,1.88
2022-08-22T17:03:36.895Z,3.97
2022-08-22T17:06:33.294Z,1.92
2022-08-22T17:09:18.970Z,2.03
2022-08-22T17:11:54.834Z,1.73
2022-08-22T17:14:53.872Z,2.20
2022-08-22T17:18:12.855Z,1.80
2022-08-22T17:21:06.431Z,2.00
2022-08-22T17:24:06.424Z,1.70
2022-08-22T17:26:57.949Z,1.92
2022-08-22T17:29:52.131Z,2.10
2022-08-22T17:32:59.195Z,1.80
2022-08-22T17:35:40.909Z,1.83
2022-08-22T17:38:40.944Z,2.03
2022-08-22T17:41:27.940Z,1.83
2022-08-22T17:44:23.135Z,1.98
2022-08-22T17:46:56.363Z,1.92
2022-08-22T17:50:14.097Z,2.10
2022-08-22T17:53:28.988Z,2.00
2022-08-22T17:56:09.291Z,1.75
2022-08-22T17:58:49.643Z,2.42
2022-08-22T18:02:01.375Z,1.85
2022-08-22T18:05:08.056Z,1.90
2022-08-22T18:07:54.513Z,1.85
2022-08-22T18:10:54.791Z,1.95
2022-08-22T18:13:49.674Z,2.10
2022-08-22T18:16:36.118Z,2.45
2022-08-22T18:19:46.104Z,2.10
2022-08-22T18:22:40.897Z,1.90
2022-08-22T18:25:45.787Z,2.15
2022-08-22T18:28:40.868Z,1.70
2022-08-22T18:31:38.290Z,1.60
2022-08-22T18:34:18.740Z,1.90
2022-08-22T18:37:23.546Z,1.80
2022-08-22T18:40:03.976Z,1.83
2022-08-22T18:42:51.947Z,1.95
2022-08-22T18:46:03.953Z,2.22
2022-08-22T18:48:59.224Z,2.08
2022-08-22T18:51:38.303Z,1.90
2022-08-22T18:54:06.807Z,1.92
2022-08-22T18:56:59.460Z,1.85
2022-08-22T18:59:46.014Z,1.90
2022-08-22T19:02:39.862Z,1.75
2022-08-22T19:05:28.019Z,2.10
2022-08-22T19:08:15.534Z,1.77
2022-08-22T19:11:36.445Z,1.90
2022-08-22T19:14:47.759Z,1.90
2022-08-22T19:17:41.771Z,2.25
2022-08-22T19:20:45.548Z,1.73
2022-08-22T19:23:38.951Z,1.92
2022-08-22T19:26:29.303Z,1.70
2022-08-22T19:29:29.468Z,2.03
2022-08-22T19:32:05.975Z,1.95
2022-08-22T19:35:33.267Z,1.80
2022-08-22T19:38:06.302Z,2.20
2022-08-22T19:40:45.542Z,1.90
2022-08-22T19:43:38.495Z,2.20
2022-08-22T19:46:11.969Z,2.13
2022-08-22T19:48:52.607Z,2.10
2022-08-22T19:51:19.615Z,2.30
2022-08-22T19:53:49.658Z,2.25
2022-08-22T19:56:30.996Z,2.60
2022-08-22T19:59:31.505Z,2.10
2022-08-22T20:02:31.914Z,1.98
2022-08-22T20:05:23.151Z,2.05
2022-08-22T20:08:19.826Z,2.08
2022-08-22T20:11:04.062Z,2.03
2022-08-22T20:13:38.333Z,2.30
2022-08-22T20:17:00.609Z,2.10
2022-08-22T20:19:42.895Z,2.20
2022-08-22T20:22:43.352Z,2.22
2022-08-22T20:25:43.160Z,1.83
2022-08-22T20:28:49.783Z,2.20
2022-08-22T20:31:25.628Z,2.00
2022-08-22T20:34:00.473Z,2.15
2022-08-22T20:36:29.480Z,2.00
2022-08-22T20:39:46.559Z,2.40
2022-08-22T20:42:17.257Z,1.92
2022-08-22T20:44:54.156Z,2.20
2022-08-22T20:47:25.122Z,1.75
2022-08-22T20:50:00.666Z,2.03
2022-08-22T20:52:33.519Z,2.28
2022-08-22T20:55:07.351Z,2.30
2022-08-22T20:57:51.175Z,2.20
2022-08-22T21:00:35.901Z,2.13
2022-08-22T21:03:12.615Z,2.40
2022-08-22T21:05:44.931Z,2.00
2022-08-22T21:08:23.179Z,2.22
2022-08-22T21:11:40.546Z,2.00
2022-08-22T21:14:31.091Z,2.40
2022-08-22T21:16:59.268Z,1.95
2022-08-22T21:19:29.291Z,2.50
2022-08-22T21:22:30.031Z,2.60
2022-08-22T21:25:01.202Z,2.58
2022-08-22T21:27:34.185Z,2.20
2022-08-22T21:30:08.293Z,1.95
2022-08-22T21:32:43.341Z,2.08
2022-08-22T21:35:33.142Z,2.10
2022-08-22T21:38:03.341Z,2.80
2022-08-22T21:40:37.166Z,2.15
2022-08-22T21:43:26.693Z,2.13
2022-08-22T21:45:53.671Z,2.13
2022-08-22T21:48:33.966Z,2.20
2022-08-22T21:51:38.682Z,2.20
2022-08-22T21:54:28.177Z,2.25
2022-08-22T21:57:14.666Z,2.17
2022-08-22T21:59:59.805Z,2.30
2022-08-22T22:02:43.711Z,1.90
2022-08-22T22:05:16.230Z,2.28
2022-08-22T22:07:47.118Z,2.40
2022-08-22T22:10:20.162Z,2.00
2022-08-22T22:12:51.273Z,2.38
2022-08-22T22:15:25.151Z,2.20
2022-08-22T22:17:53.078Z,2.65
2022-08-22T22:20:23.759Z,2.00
2022-08-22T22:22:50.875Z,2.15
2022-08-22T22:25:40.703Z,2.10
2022-08-22T22:28:37.791Z,2.42
2022-08-22T22:31:05.530Z,2.35
2022-08-22T22:33:40.036Z,2.30
2022-08-22T22:36:26.714Z,2.30
2022-08-22T22:38:54.256Z,2.38
2022-08-22T22:41:25.430Z,2.30
2022-08-22T22:43:53.820Z,2.35
2022-08-22T22:46:22.662Z,2.30
2022-08-22T22:48:50.353Z,2.40
2022-08-22T22:51:17.298Z,2.30
2022-08-22T22:53:44.954Z,2.58
2022-08-22T22:56:21.466Z,2.92
2022-08-22T22:58:50.282Z,2.80
2022-08-22T23:01:26.976Z,2.65
2022-08-22T23:03:57.408Z,2.13
2022-08-22T23:06:28.041Z,2.35
2022-08-22T23:08:55.927Z,2.58
2022-08-22T23:11:27.856Z,2.53
2022-08-22T23:13:56.173Z,2.40
2022-08-22T23:16:27.968Z,2.40
2022-08-22T23:18:55.959Z,2.45
2022-08-22T23:21:30.046Z,2.25
2022-08-22T23:23:59.873Z,2.55
2022-08-22T23:26:28.491Z,2.80
2022-08-22T23:28:57.267Z,2.58
2022-08-22T23:31:41.669Z,2.40
2022-08-22T23:34:16.413Z,2.35
2022-08-22T23:36:47.209Z,2.70
2022-08-22T23:39:16.530Z,2.50
2022-08-22T23:41:46.566Z,2.05
2022-08-22T23:44:20.785Z,2.35
2022-08-22T23:46:48.328Z,2.17
2022-08-22T23:49:16.099Z,2.22
2022-08-22T23:51:47.185Z,2.90
2022-08-22T23:54:15.779Z,2.55
2022-08-22T23:56:55.036Z,2.67
2022-08-22T23:59:30.740Z,2.10
